createdAt,value
2019-04-29T00:00:45.646Z,76.81
2019-04-29T00:01:45.617Z,76.57
2019-04-29T00:02:45.618Z,76.68
2019-04-29T00:03:45.618Z,76.81
2019-04-29T00:04:45.596Z,77.02
2019-04-29T00:05:45.602Z,77.43
2019-04-29T00:06:45.584Z,77.12
2019-04-29T00:07:45.559Z,77.02
2019-04-29T00:08:45.552Z,77.33
2019-04-29T00:09:45.537Z,77.43
2019-04-29T00:10:45.527Z,77.53
2019-04-29T00:11:45.542Z,77.33
2019-04-29T00:12:45.499Z,77.73
2019-04-29T00:13:45.490Z,77.73
2019-04-29T00:14:45.497Z,78.25
2019-04-29T00:15:45.472Z,78.25
2019-04-29T00:16:45.476Z,77.73
2019-04-29T00:17:45.450Z,77.43
2019-04-29T00:18:45.434Z,77.29
2019-04-29T00:19:45.429Z,77.60
2019-04-29T00:20:45.418Z,77.53
2019-04-29T00:21:45.427Z,78.05
2019-04-29T00:22:45.393Z,78.01
2019-04-29T00:23:45.383Z,77.84
2019-04-29T00:24:45.374Z,78.25
2019-04-29T00:25:45.368Z,78.86
2019-04-29T00:26:45.380Z,78.45
2019-04-29T00:27:45.347Z,78.56
2019-04-29T00:28:45.330Z,78.45
2019-04-29T00:29:45.332Z,78.97
2019-04-29T00:30:45.306Z,78.66
2019-04-29T00:31:45.314Z,79.03
2019-04-29T00:32:45.295Z,78.86
2019-04-29T00:33:45.299Z,78.76
2019-04-29T00:34:45.270Z,78.97
2019-04-29T00:35:45.250Z,78.66
2019-04-29T00:36:45.275Z,78.56
2019-04-29T00:37:45.253Z,78.66
2019-04-29T00:38:45.227Z,78.97
2019-04-29T00:39:45.220Z,78.86
2019-04-29T00:40:45.202Z,78.76
2019-04-29T00:41:45.238Z,78.66
2019-04-29T00:42:45.193Z,78.76
2019-04-29T00:43:45.168Z,78.45
2019-04-29T00:44:45.192Z,78.66
2019-04-29T00:45:45.161Z,78.45
2019-04-29T00:46:45.179Z,78.66
2019-04-29T00:47:45.125Z,78.97
2019-04-29T00:48:45.112Z,79.27
2019-04-29T00:49:45.107Z,79.52
2019-04-29T00:50:45.098Z,79.58
2019-04-29T00:51:45.109Z,79.52
2019-04-29T00:52:45.075Z,79.27
2019-04-29T00:53:45.063Z,79.38
2019-04-29T00:54:45.053Z,79.07
2019-04-29T00:55:45.045Z,79.17
2019-04-29T00:56:45.045Z,79.31
2019-04-29T00:57:45.015Z,79.62
2019-04-29T00:58:45.011Z,79.41
2019-04-29T00:59:45.001Z,79.07
2019-04-29T01:00:44.997Z,79.11
2019-04-29T01:01:45.027Z,79.72
2019-04-29T01:02:44.987Z,80.23
2019-04-29T01:03:44.955Z,80.13
2019-04-29T01:04:44.945Z,79.82
2019-04-29T01:05:44.929Z,80.44
2019-04-29T01:06:44.955Z,80.44
2019-04-29T01:07:44.925Z,80.03
2019-04-29T01:08:44.912Z,80.13
2019-04-29T01:09:44.891Z,80.44
2019-04-29T01:10:44.894Z,80.03
2019-04-29T01:11:44.889Z,80.44
2019-04-29T01:12:44.864Z,80.64
2019-04-29T01:13:44.857Z,80.54
2019-04-29T01:14:44.852Z,80.19
2019-04-29T01:15:44.827Z,80.30
2019-04-29T01:16:44.835Z,80.03
2019-04-29T01:17:44.827Z,80.64
2019-04-29T01:18:44.798Z,80.85
2019-04-29T01:19:44.807Z,80.74
2019-04-29T01:20:44.773Z,81.05
2019-04-29T01:21:44.759Z,80.74
2019-04-29T01:22:52.045Z,81.15
2019-04-29T01:23:44.758Z,80.95
2019-04-29T01:24:44.729Z,80.95
2019-04-29T01:25:44.734Z,81.57
2019-04-29T01:26:53.054Z,81.87
2019-04-29T01:27:44.693Z,81.91
2019-04-29T01:28:44.721Z,81.98
2019-04-29T01:29:44.685Z,81.81
2019-04-29T01:30:44.685Z,82.12
2019-04-29T01:31:44.722Z,82.32
2019-04-29T01:32:44.680Z,82.32
2019-04-29T01:33:44.638Z,82.73
2019-04-29T01:34:44.623Z,82.93
2019-04-29T01:35:44.613Z,83.55
2019-04-29T01:36:44.684Z,83.18
2019-04-29T01:37:44.681Z,83.14
2019-04-29T01:38:44.594Z,83.07
2019-04-29T01:39:44.603Z,83.34
2019-04-29T01:40:44.563Z,83.25
2019-04-29T01:41:44.555Z,83.59
2019-04-29T01:42:44.669Z,83.55
2019-04-29T01:43:46.568Z,83.25
2019-04-29T01:44:44.561Z,83.69
2019-04-29T01:45:44.504Z,84.00
2019-04-29T01:46:44.518Z,83.90
2019-04-29T01:47:44.530Z,84.52
2019-04-29T01:48:44.590Z,84.58
2019-04-29T01:49:44.526Z,84.41
2019-04-29T01:50:44.515Z,84.47
2019-04-29T01:51:44.503Z,85.23
2019-04-29T01:52:44.446Z,85.13
2019-04-29T01:53:44.422Z,84.82
2019-04-29T01:54:44.418Z,85.44
2019-04-29T01:55:44.432Z,85.33
2019-04-29T01:56:44.388Z,85.23
2019-04-29T01:57:44.405Z,85.44
2019-04-29T01:58:44.362Z,85.33
2019-04-29T01:59:44.428Z,85.33
2019-04-29T02:00:44.390Z,85.85
2019-04-29T02:01:44.362Z,86.05
2019-04-29T02:02:44.344Z,85.85
2019-04-29T02:03:44.363Z,86.05
2019-04-29T02:04:44.354Z,87.18
2019-04-29T02:05:44.354Z,86.30
2019-04-29T02:06:44.349Z,86.77
2019-04-29T02:07:44.412Z,86.98
2019-04-29T02:08:44.315Z,87.02
2019-04-29T02:09:44.326Z,87.02
2019-04-29T02:10:44.284Z,87.43
2019-04-29T02:11:44.314Z,88.24
2019-04-29T02:12:44.395Z,87.94
2019-04-29T02:13:44.206Z,88.82
2019-04-29T02:14:44.195Z,88.96
2019-04-29T02:15:44.245Z,88.56
2019-04-29T02:16:44.217Z,88.51
2019-04-29T02:17:44.220Z,88.35
2019-04-29T02:18:44.287Z,88.21
2019-04-29T02:19:44.231Z,88.72
2019-04-29T02:20:46.213Z,89.03
2019-04-29T02:21:44.216Z,89.84
2019-04-29T02:22:44.186Z,89.23
2019-04-29T02:23:44.288Z,89.78
2019-04-29T02:24:44.172Z,89.48
2019-04-29T02:25:44.133Z,90.03
2019-04-29T02:26:44.089Z,90.34
2019-04-29T02:27:44.113Z,90.75
2019-04-29T02:28:44.217Z,91.88
2019-04-29T02:29:44.089Z,91.99
2019-04-29T02:30:44.067Z,91.57
2019-04-29T02:31:44.017Z,91.78
2019-04-29T02:32:44.069Z,91.57
2019-04-29T02:33:44.081Z,92.19
2019-04-29T02:34:44.027Z,91.57
2019-04-29T02:35:44.037Z,91.78
2019-04-29T02:36:44.000Z,92.29
2019-04-29T02:37:43.978Z,92.40
2019-04-29T02:38:43.965Z,92.29
2019-04-29T02:39:43.979Z,92.29
2019-04-29T02:40:43.961Z,92.29
2019-04-29T02:41:43.937Z,92.19
2019-04-29T02:42:43.899Z,92.19
2019-04-29T02:43:43.918Z,92.19
2019-04-29T02:44:43.877Z,91.99
2019-04-29T02:45:43.887Z,92.40
2019-04-29T02:46:43.914Z,92.19
2019-04-29T02:47:43.877Z,92.19
2019-04-29T02:48:43.875Z,92.29
2019-04-29T02:49:43.903Z,91.78
2019-04-29T02:50:45.918Z,91.88
2019-04-29T02:51:43.880Z,91.99
2019-04-29T02:52:45.899Z,92.29
2019-04-29T02:53:43.822Z,92.29
2019-04-29T02:54:43.783Z,92.19
2019-04-29T02:55:43.829Z,92.33
2019-04-29T02:58:57.813Z,92.08
2019-04-29T02:59:57.649Z,92.29
2019-04-29T03:00:57.655Z,92.29
2019-04-29T03:01:57.635Z,92.40
2019-04-29T03:02:57.624Z,92.19
2019-04-29T03:03:36.634Z,92.08
2019-04-29T03:04:36.606Z,91.88
2019-04-29T03:05:39.911Z,92.29
2019-04-29T03:06:36.591Z,92.08
2019-04-29T03:07:36.568Z,92.08
2019-04-29T03:08:36.591Z,92.19
2019-04-29T03:09:36.567Z,92.40
2019-04-29T03:10:36.530Z,92.44
2019-04-29T03:11:36.537Z,91.88
2019-04-29T03:12:36.506Z,92.08
2019-04-29T03:13:36.497Z,92.19
2019-04-29T03:14:36.546Z,91.99
2019-04-29T03:15:36.477Z,92.74
2019-04-29T03:16:36.472Z,92.29
2019-04-29T03:17:36.455Z,92.19
2019-04-29T03:18:36.469Z,91.99
2019-04-29T03:19:36.556Z,92.40
2019-04-29T03:20:36.442Z,91.99
2019-04-29T03:21:36.413Z,92.08
2019-04-29T03:22:36.404Z,92.19
2019-04-29T03:23:36.391Z,92.29
2019-04-29T03:24:36.396Z,92.50
2019-04-29T03:25:36.371Z,92.40
2019-04-29T03:26:36.366Z,92.19
2019-04-29T03:27:36.346Z,92.08
2019-04-29T03:28:36.338Z,92.60
2019-04-29T03:29:36.358Z,92.08
2019-04-29T03:30:36.334Z,92.19
2019-04-29T03:31:39.503Z,91.78
2019-04-29T03:32:36.312Z,92.19
2019-04-29T03:33:36.285Z,92.08
2019-04-29T03:34:36.285Z,92.35
2019-04-29T03:35:36.261Z,92.29
2019-04-29T03:36:36.260Z,92.29
2019-04-29T03:37:36.258Z,92.40
2019-04-29T03:38:36.233Z,92.29
2019-04-29T03:39:36.262Z,92.19
2019-04-29T03:40:36.210Z,92.08
2019-04-29T03:41:36.200Z,92.08
2019-04-29T03:42:36.186Z,91.99
2019-04-29T03:43:36.176Z,92.40
2019-04-29T03:44:36.188Z,92.19
2019-04-29T03:45:36.148Z,92.80
2019-04-29T03:46:36.138Z,92.91
2019-04-29T03:47:36.130Z,93.01
2019-04-29T03:48:36.122Z,93.42
2019-04-29T03:49:36.133Z,93.32
2019-04-29T03:50:36.096Z,92.91
2019-04-29T03:51:36.079Z,93.32
2019-04-29T03:52:36.073Z,93.32
2019-04-29T03:53:36.077Z,93.32
2019-04-29T03:54:36.073Z,93.32
2019-04-29T03:55:40.062Z,93.12
2019-04-29T03:56:36.035Z,92.86
2019-04-29T03:57:36.017Z,92.80
2019-04-29T03:58:36.075Z,93.07
2019-04-29T03:59:36.020Z,93.01
2019-04-29T04:00:36.008Z,92.91
2019-04-29T04:01:35.981Z,93.12
2019-04-29T04:02:35.960Z,93.07
2019-04-29T04:03:35.955Z,93.01
2019-04-29T04:04:35.963Z,93.01
2019-04-29T04:05:35.939Z,93.12
2019-04-29T04:06:35.928Z,93.42
2019-04-29T04:07:35.911Z,93.12
2019-04-29T04:08:35.899Z,93.01
2019-04-29T04:09:35.913Z,93.17
2019-04-29T04:10:35.885Z,93.01
2019-04-29T04:11:35.877Z,93.01
2019-04-29T04:12:35.878Z,92.86
2019-04-29T04:13:35.847Z,93.21
2019-04-29T04:14:35.853Z,93.42
2019-04-29T04:15:35.828Z,93.63
2019-04-29T04:16:35.813Z,93.83
2019-04-29T04:17:35.849Z,92.97
2019-04-29T04:18:35.795Z,93.12
2019-04-29T04:19:35.818Z,93.42
2019-04-29T04:20:35.770Z,93.32
2019-04-29T04:21:35.758Z,93.38
2019-04-29T04:22:35.751Z,93.38
2019-04-29T04:23:35.751Z,93.07
2019-04-29T04:24:35.827Z,93.07
2019-04-29T04:25:35.824Z,93.17
2019-04-29T04:26:35.703Z,93.38
2019-04-29T04:27:35.696Z,93.07
2019-04-29T04:28:35.688Z,92.97
2019-04-29T04:29:35.689Z,93.38
2019-04-29T04:30:35.670Z,93.48
2019-04-29T04:31:35.655Z,93.48
2019-04-29T04:32:35.651Z,93.38
2019-04-29T04:33:35.637Z,93.07
2019-04-29T04:34:35.653Z,93.79
2019-04-29T04:35:35.625Z,93.68
2019-04-29T04:36:35.598Z,94.20
2019-04-29T04:37:35.581Z,93.89
2019-04-29T04:38:35.580Z,93.99
2019-04-29T04:39:35.571Z,93.99
2019-04-29T04:40:35.580Z,93.99
2019-04-29T04:41:35.541Z,94.20
2019-04-29T04:42:35.532Z,94.30
2019-04-29T04:43:35.518Z,94.30
2019-04-29T04:44:35.509Z,94.81
2019-04-29T04:45:35.513Z,94.92
2019-04-29T04:46:35.499Z,94.92
2019-04-29T04:47:35.472Z,95.02
2019-04-29T04:48:35.464Z,94.30
2019-04-29T04:49:35.460Z,95.23
2019-04-29T04:50:35.473Z,95.02
2019-04-29T04:51:35.439Z,94.87
2019-04-29T04:52:35.426Z,94.92
2019-04-29T04:53:35.411Z,94.71
2019-04-29T04:54:35.401Z,94.36
2019-04-29T04:55:35.400Z,94.36
2019-04-29T04:56:35.374Z,94.30
2019-04-29T04:57:35.372Z,94.56
2019-04-29T04:58:35.359Z,94.51
2019-04-29T04:59:35.347Z,94.26
2019-04-29T05:00:35.369Z,94.30
2019-04-29T05:01:35.320Z,94.61
2019-04-29T05:02:35.311Z,94.20
2019-04-29T05:03:35.311Z,94.26
2019-04-29T05:04:35.343Z,94.36
2019-04-29T05:05:35.296Z,94.46
2019-04-29T05:06:35.265Z,94.56
2019-04-29T05:07:35.321Z,94.05
2019-04-29T05:08:35.254Z,93.95
2019-04-29T05:09:35.232Z,93.74
2019-04-29T05:10:35.244Z,93.64
2019-04-29T05:11:35.212Z,94.26
2019-04-29T05:12:35.205Z,93.95
2019-04-29T05:13:35.202Z,93.74
2019-04-29T05:14:35.182Z,94.26
2019-04-29T05:15:35.206Z,94.05
2019-04-29T05:16:35.158Z,93.95
2019-04-29T05:17:35.161Z,93.95
2019-04-29T05:18:35.171Z,93.64
2019-04-29T05:19:35.127Z,93.74
2019-04-29T05:20:35.133Z,93.64
2019-04-29T05:21:35.107Z,93.95
2019-04-29T05:22:35.100Z,93.85
2019-04-29T05:23:35.101Z,94.05
2019-04-29T05:24:35.079Z,94.15
2019-04-29T05:25:35.079Z,93.74
2019-04-29T05:26:35.073Z,94.26
2019-04-29T05:27:35.046Z,94.05
2019-04-29T05:28:35.042Z,94.05
2019-04-29T05:29:35.018Z,93.60
2019-04-29T05:30:35.007Z,93.60
2019-04-29T05:31:35.014Z,94.15
2019-04-29T05:32:34.997Z,93.90
2019-04-29T05:33:34.982Z,94.11
2019-04-29T05:34:34.973Z,93.60
2019-04-29T05:35:34.959Z,94.15
2019-04-29T05:36:38.234Z,94.42
2019-04-29T05:37:34.938Z,94.32
2019-04-29T05:38:34.925Z,94.11
2019-04-29T05:39:34.908Z,94.01
2019-04-29T05:40:34.913Z,93.80
2019-04-29T05:41:36.343Z,93.49
2019-04-29T05:42:34.881Z,93.90
2019-04-29T05:43:34.870Z,93.90
2019-04-29T05:44:34.861Z,93.70
2019-04-29T05:45:34.847Z,93.60
2019-04-29T05:46:34.861Z,93.95
2019-04-29T05:47:34.823Z,93.64
2019-04-29T05:48:34.823Z,94.15
2019-04-29T05:49:37.456Z,94.52
2019-04-29T05:50:35.793Z,94.15
2019-04-29T05:51:34.797Z,94.36
2019-04-29T05:52:39.472Z,94.15
2019-04-29T05:53:35.775Z,94.05
2019-04-29T05:54:34.774Z,94.26
2019-04-29T05:55:34.738Z,94.36
2019-04-29T05:56:34.753Z,94.36
2019-04-29T05:57:34.712Z,94.36
2019-04-29T05:58:37.838Z,94.98
2019-04-29T05:59:34.691Z,94.26
2019-04-29T06:00:34.689Z,94.77
2019-04-29T06:01:34.693Z,94.98
2019-04-29T06:02:38.695Z,95.12
2019-04-29T06:03:37.814Z,95.18
2019-04-29T06:04:34.638Z,95.49
2019-04-29T06:05:34.749Z,96.35
2019-04-29T06:06:34.648Z,96.31
2019-04-29T06:07:34.611Z,96.62
2019-04-29T06:08:39.053Z,97.07
2019-04-29T06:09:34.583Z,96.77
2019-04-29T06:10:34.578Z,96.97
2019-04-29T06:11:34.580Z,97.38
2019-04-29T06:12:34.558Z,97.07
2019-04-29T06:13:34.545Z,97.48
2019-04-29T06:14:34.544Z,97.38
2019-04-29T06:15:34.528Z,97.48
2019-04-29T06:16:34.534Z,97.38
2019-04-29T06:17:34.500Z,97.58
2019-04-29T06:18:34.489Z,97.17
2019-04-29T06:19:35.197Z,97.38
2019-04-29T06:20:34.466Z,97.58
2019-04-29T06:21:34.478Z,97.69
2019-04-29T06:22:37.864Z,97.69
2019-04-29T06:23:35.432Z,97.48
2019-04-29T06:24:36.988Z,97.48
2019-04-29T06:25:35.414Z,97.89
2019-04-29T06:26:34.438Z,97.69
2019-04-29T06:27:34.386Z,97.48
2019-04-29T06:28:34.380Z,97.89
2019-04-29T06:29:34.389Z,97.89
2019-04-29T06:30:37.626Z,97.99
2019-04-29T06:31:35.354Z,97.89
2019-04-29T06:32:34.352Z,97.79
2019-04-29T06:33:34.322Z,97.48
2019-04-29T06:34:35.515Z,97.38
2019-04-29T06:35:35.294Z,98.10
2019-04-29T06:36:34.307Z,97.95
2019-04-29T06:37:34.796Z,97.95
2019-04-29T06:38:34.271Z,98.10
2019-04-29T06:39:37.178Z,97.64
2019-04-29T06:40:55.271Z,97.54
2019-04-29T06:41:34.243Z,97.74
2019-04-29T06:42:34.255Z,97.99
2019-04-29T06:43:34.230Z,98.05
2019-04-29T06:44:34.213Z,97.95
2019-04-29T06:45:34.215Z,98.36
2019-04-29T06:46:34.190Z,98.36
2019-04-29T06:47:34.188Z,98.36
2019-04-29T06:48:34.170Z,98.36
2019-04-29T06:49:34.154Z,98.57
2019-04-29T06:50:34.143Z,98.67
2019-04-29T06:51:34.129Z,98.57
2019-04-29T06:52:34.143Z,98.57
2019-04-29T06:53:34.107Z,98.36
2019-04-29T06:54:34.093Z,98.16
2019-04-29T06:55:34.103Z,98.36
2019-04-29T06:56:34.072Z,98.57
2019-04-29T06:57:34.079Z,98.25
2019-04-29T06:58:36.623Z,98.46
2019-04-29T06:59:34.047Z,98.46
2019-04-29T07:00:34.035Z,98.46
2019-04-29T07:01:37.533Z,98.46
2019-04-29T07:02:34.084Z,98.36
2019-04-29T07:03:34.009Z,98.67
2019-04-29T07:04:38.458Z,98.25
2019-04-29T07:05:34.989Z,98.46
2019-04-29T07:06:33.967Z,98.46
2019-04-29T07:07:33.995Z,98.46
2019-04-29T07:08:33.958Z,98.57
2019-04-29T07:09:33.935Z,98.46
2019-04-29T07:10:33.921Z,98.16
2019-04-29T07:11:36.645Z,98.36
2019-04-29T07:12:33.916Z,98.25
2019-04-29T07:13:33.887Z,98.46
2019-04-29T07:14:38.295Z,98.46
2019-04-29T07:15:33.869Z,98.36
2019-04-29T07:16:33.868Z,98.46
2019-04-29T07:17:36.556Z,98.46
2019-04-29T07:18:34.860Z,98.36
2019-04-29T07:19:33.823Z,98.46
2019-04-29T07:20:37.244Z,97.64
2019-04-29T07:21:33.851Z,98.57
2019-04-29T07:22:33.795Z,97.91
2019-04-29T07:23:33.805Z,98.46
2019-04-29T07:24:33.787Z,98.42
2019-04-29T07:25:33.758Z,98.46
2019-04-29T07:26:33.751Z,98.36
2019-04-29T07:27:34.499Z,97.80
2019-04-29T07:28:34.745Z,97.54
2019-04-29T07:29:33.722Z,98.57
2019-04-29T07:30:39.361Z,98.52
2019-04-29T07:31:35.187Z,98.72
2019-04-29T07:32:33.678Z,98.52
2019-04-29T07:33:33.691Z,98.32
2019-04-29T07:34:36.474Z,98.32
2019-04-29T07:35:37.882Z,98.32
2019-04-29T07:36:33.642Z,98.42
2019-04-29T07:37:34.436Z,98.52
2019-04-29T07:38:41.358Z,98.37
2019-04-29T07:39:34.616Z,98.37
2019-04-29T07:40:33.602Z,98.47
2019-04-29T07:41:33.582Z,97.65
2019-04-29T07:42:33.585Z,97.75
2019-04-29T07:43:33.590Z,97.55
2019-04-29T07:44:43.783Z,97.45
2019-04-29T07:45:44.061Z,97.55
2019-04-29T07:46:55.219Z,97.45
2019-04-29T07:47:34.580Z,97.04
2019-04-29T07:48:36.922Z,97.45
2019-04-29T07:49:34.496Z,97.40
2019-04-29T07:50:33.496Z,97.20
2019-04-29T07:51:34.750Z,97.30
2019-04-29T07:52:34.476Z,96.83
2019-04-29T07:53:40.124Z,97.04
2019-04-29T07:54:34.457Z,96.89
2019-04-29T07:55:33.434Z,96.94
2019-04-29T07:56:33.420Z,96.79
2019-04-29T07:57:33.422Z,97.09
2019-04-29T07:58:33.426Z,96.69
2019-04-29T07:59:33.877Z,97.09
2019-04-29T08:00:33.391Z,97.20
2019-04-29T08:01:33.360Z,96.99
2019-04-29T08:02:33.373Z,96.17
2019-04-29T08:03:33.360Z,95.76
2019-04-29T08:04:33.338Z,95.97
2019-04-29T08:05:33.326Z,96.58
2019-04-29T08:06:33.309Z,95.97
2019-04-29T08:07:33.297Z,95.76
2019-04-29T08:08:33.311Z,95.15
2019-04-29T08:09:33.286Z,95.15
2019-04-29T08:10:33.266Z,95.05
2019-04-29T08:11:33.262Z,95.15
2019-04-29T08:12:33.287Z,94.95
2019-04-29T08:13:33.270Z,94.99
2019-04-29T08:14:33.227Z,94.95
2019-04-29T08:15:36.822Z,95.61
2019-04-29T08:16:34.202Z,95.36
2019-04-29T08:17:33.198Z,96.38
2019-04-29T08:18:33.203Z,96.42
2019-04-29T08:19:33.174Z,95.91
2019-04-29T08:20:35.455Z,95.40
2019-04-29T08:21:34.157Z,95.50
2019-04-29T08:22:33.135Z,95.70
2019-04-29T08:23:40.927Z,96.53
2019-04-29T08:24:37.211Z,96.12
2019-04-29T08:25:33.099Z,95.61
2019-04-29T08:26:33.623Z,95.65
2019-04-29T08:27:39.882Z,95.65
2019-04-29T08:28:34.109Z,95.29
2019-04-29T08:29:35.664Z,95.40
2019-04-29T08:30:33.052Z,95.91
2019-04-29T08:31:33.040Z,95.44
2019-04-29T08:32:36.353Z,95.40
2019-04-29T08:33:33.047Z,95.81
2019-04-29T08:34:33.165Z,95.29
2019-04-29T08:35:36.879Z,94.99
2019-04-29T08:36:32.981Z,95.20
2019-04-29T08:37:33.699Z,94.89
2019-04-29T08:38:32.957Z,94.99
2019-04-29T08:39:32.977Z,95.09
2019-04-29T08:40:34.349Z,95.09
2019-04-29T08:41:32.931Z,95.36
2019-04-29T08:42:37.200Z,94.07
2019-04-29T08:43:32.913Z,94.27
2019-04-29T08:44:32.933Z,94.07
2019-04-29T08:45:34.686Z,93.62
2019-04-29T08:46:34.713Z,94.27
2019-04-29T08:47:32.860Z,94.33
2019-04-29T08:48:32.975Z,93.96
2019-04-29T08:49:32.868Z,94.37
2019-04-29T08:50:32.836Z,94.48
2019-04-29T08:51:32.852Z,93.96
2019-04-29T08:52:32.856Z,94.37
2019-04-29T08:53:32.792Z,94.12
2019-04-29T08:54:32.807Z,93.71
2019-04-29T08:55:36.311Z,93.71
2019-04-29T08:56:32.766Z,93.62
2019-04-29T08:57:36.595Z,93.00
2019-04-29T08:58:32.746Z,93.00
2019-04-29T08:59:32.745Z,93.20
2019-04-29T09:00:32.742Z,92.69
2019-04-29T09:01:34.186Z,93.25
2019-04-29T09:02:35.074Z,93.71
2019-04-29T09:03:40.149Z,92.90
2019-04-29T09:04:35.321Z,92.79
2019-04-29T09:05:32.673Z,93.00
2019-04-29T09:06:33.971Z,93.26
2019-04-29T09:07:32.645Z,93.00
2019-04-29T09:08:34.255Z,92.08
2019-04-29T09:09:32.682Z,92.18
2019-04-29T09:10:33.000Z,91.31
2019-04-29T09:11:32.677Z,91.31
2019-04-29T09:12:32.590Z,91.31
2019-04-29T09:13:32.580Z,91.42
2019-04-29T09:14:32.598Z,91.63
2019-04-29T09:15:32.556Z,91.42
2019-04-29T09:16:32.544Z,91.31
2019-04-29T09:17:32.538Z,91.42
2019-04-29T09:18:32.519Z,91.01
2019-04-29T09:19:32.527Z,91.11
2019-04-29T09:20:32.524Z,90.50
2019-04-29T09:21:32.488Z,90.91
2019-04-29T09:22:32.502Z,91.01
2019-04-29T09:23:32.481Z,91.31
2019-04-29T09:24:32.472Z,91.42
2019-04-29T09:25:32.478Z,91.42
2019-04-29T09:26:32.442Z,91.63
2019-04-29T09:27:32.422Z,91.31
2019-04-29T09:28:32.413Z,92.34
2019-04-29T09:29:32.444Z,91.93
2019-04-29T09:30:32.394Z,92.03
2019-04-29T09:31:32.403Z,91.22
2019-04-29T09:32:33.991Z,92.30
2019-04-29T09:33:32.378Z,91.78
2019-04-29T09:34:32.373Z,90.66
2019-04-29T09:35:33.871Z,91.78
2019-04-29T09:36:33.337Z,91.17
2019-04-29T09:37:32.317Z,91.07
2019-04-29T09:38:36.381Z,90.86
2019-04-29T09:39:42.926Z,90.56
2019-04-29T09:40:33.286Z,90.45
2019-04-29T09:41:35.001Z,89.84
2019-04-29T09:42:32.278Z,90.25
2019-04-29T09:43:32.944Z,90.31
2019-04-29T09:44:35.296Z,90.36
2019-04-29T09:45:33.230Z,90.52
2019-04-29T09:46:34.402Z,89.80
2019-04-29T09:47:32.233Z,89.64
2019-04-29T09:48:32.201Z,89.84
2019-04-29T09:49:32.186Z,90.05
2019-04-29T09:50:34.135Z,90.09
2019-04-29T09:51:33.174Z,89.94
2019-04-29T09:52:32.160Z,89.53
2019-04-29T09:53:32.147Z,90.05
2019-04-29T09:54:32.155Z,89.84
2019-04-29T09:55:35.635Z,89.84
2019-04-29T09:56:34.848Z,89.94
2019-04-29T09:57:32.099Z,90.25
2019-04-29T09:58:32.117Z,89.89
2019-04-29T09:59:32.088Z,90.25
2019-04-29T10:00:32.085Z,90.45
2019-04-29T10:01:32.056Z,90.25
2019-04-29T10:02:33.192Z,90.50
2019-04-29T10:03:32.038Z,90.45
2019-04-29T10:04:32.030Z,90.25
2019-04-29T10:05:32.040Z,90.39
2019-04-29T10:06:32.013Z,90.30
2019-04-29T10:07:31.993Z,90.15
2019-04-29T10:08:31.981Z,90.19
2019-04-29T10:09:31.979Z,90.50
2019-04-29T10:10:31.999Z,90.45
2019-04-29T10:11:31.957Z,89.89
2019-04-29T10:12:31.945Z,90.13
2019-04-29T10:13:31.941Z,90.50
2019-04-29T10:14:31.918Z,90.60
2019-04-29T10:15:31.912Z,91.11
2019-04-29T10:16:35.953Z,91.01
2019-04-29T10:17:32.948Z,90.81
2019-04-29T10:18:31.873Z,90.91
2019-04-29T10:19:31.855Z,90.60
2019-04-29T10:20:31.869Z,90.25
2019-04-29T10:21:31.863Z,89.53
2019-04-29T10:22:31.829Z,90.15
2019-04-29T10:23:31.865Z,89.84
2019-04-29T10:24:31.803Z,89.70
2019-04-29T10:25:31.818Z,89.80
2019-04-29T10:26:31.897Z,89.90
2019-04-29T10:27:31.777Z,89.50
2019-04-29T10:28:31.773Z,88.78
2019-04-29T10:29:31.763Z,88.43
2019-04-29T10:30:32.530Z,88.57
2019-04-29T10:31:31.758Z,88.47
2019-04-29T10:32:31.762Z,89.59
2019-04-29T10:33:31.714Z,89.45
2019-04-29T10:34:33.029Z,89.35
2019-04-29T10:35:31.697Z,89.45
2019-04-29T10:36:31.712Z,89.56
2019-04-29T10:37:32.679Z,88.12
2019-04-29T10:38:31.659Z,88.33
2019-04-29T10:39:31.643Z,88.23
2019-04-29T10:40:31.634Z,89.04
2019-04-29T10:41:31.654Z,88.33
2019-04-29T10:42:31.626Z,88.33
2019-04-29T10:43:31.630Z,88.06
2019-04-29T10:44:31.594Z,88.33
2019-04-29T10:45:31.586Z,88.33
2019-04-29T10:46:31.603Z,88.33
2019-04-29T10:47:31.558Z,88.23
2019-04-29T10:48:31.549Z,88.02
2019-04-29T10:49:34.894Z,88.02
2019-04-29T10:50:32.518Z,87.98
2019-04-29T10:51:31.556Z,87.67
2019-04-29T10:52:34.610Z,86.85
2019-04-29T10:53:32.497Z,87.47
2019-04-29T10:54:31.482Z,87.71
2019-04-29T10:55:31.765Z,88.23
2019-04-29T10:56:31.600Z,87.47
2019-04-29T10:57:31.446Z,88.18
2019-04-29T10:58:35.497Z,87.88
2019-04-29T10:59:35.916Z,87.77
2019-04-29T11:00:31.428Z,87.37
2019-04-29T11:01:31.447Z,86.30
2019-04-29T11:02:31.392Z,86.55
2019-04-29T11:03:31.389Z,86.41
2019-04-29T11:04:31.771Z,86.61
2019-04-29T11:05:31.362Z,86.44
2019-04-29T11:06:35.653Z,86.96
2019-04-29T11:07:33.257Z,87.16
2019-04-29T11:08:33.729Z,87.12
2019-04-29T11:09:32.319Z,87.02
2019-04-29T11:10:31.311Z,87.12
2019-04-29T11:11:31.295Z,86.82
2019-04-29T11:12:31.309Z,86.41
2019-04-29T11:13:31.309Z,86.51
2019-04-29T11:14:33.158Z,86.30
2019-04-29T11:15:32.778Z,86.67
2019-04-29T11:16:46.066Z,86.26
2019-04-29T11:17:34.864Z,86.06
2019-04-29T11:18:31.229Z,86.67
2019-04-29T11:19:35.104Z,86.77
2019-04-29T11:20:32.198Z,86.88
2019-04-29T11:21:31.390Z,85.61
2019-04-29T11:22:34.078Z,85.71
2019-04-29T11:23:32.169Z,86.73
2019-04-29T11:24:32.466Z,85.61
2019-04-29T11:25:31.157Z,85.41
2019-04-29T11:26:31.134Z,85.30
2019-04-29T11:27:31.137Z,85.30
2019-04-29T11:28:31.108Z,85.30
2019-04-29T11:29:31.099Z,85.41
2019-04-29T11:30:34.805Z,85.21
2019-04-29T11:31:32.073Z,85.30
2019-04-29T11:32:31.084Z,85.10
2019-04-29T11:33:31.050Z,85.30
2019-04-29T11:34:33.189Z,85.41
2019-04-29T11:35:31.030Z,84.90
2019-04-29T11:36:31.028Z,85.47
2019-04-29T11:37:31.046Z,85.16
2019-04-29T11:38:33.392Z,85.16
2019-04-29T11:39:31.988Z,84.96
2019-04-29T11:40:43.068Z,84.82
2019-04-29T11:41:31.965Z,84.96
2019-04-29T11:42:31.841Z,84.82
2019-04-29T11:43:31.949Z,84.41
2019-04-29T11:44:31.991Z,84.51
2019-04-29T11:45:33.731Z,84.82
2019-04-29T11:46:31.917Z,84.41
2019-04-29T11:47:30.932Z,84.41
2019-04-29T11:48:30.884Z,84.31
2019-04-29T11:49:30.880Z,84.34
2019-04-29T11:50:30.871Z,84.31
2019-04-29T11:51:34.147Z,84.45
2019-04-29T11:52:31.871Z,84.51
2019-04-29T11:53:30.874Z,84.31
2019-04-29T11:54:30.841Z,84.96
2019-04-29T11:55:30.815Z,84.86
2019-04-29T11:56:30.808Z,85.06
2019-04-29T11:57:40.780Z,85.16
2019-04-29T11:58:31.807Z,84.75
2019-04-29T11:59:30.939Z,84.96
2019-04-29T12:00:30.762Z,84.96
2019-04-29T12:01:38.394Z,84.61
2019-04-29T12:02:44.500Z,84.72
2019-04-29T12:03:31.731Z,84.82
2019-04-29T12:04:33.488Z,84.72
2019-04-29T12:05:30.704Z,84.92
2019-04-29T12:06:30.693Z,84.88
2019-04-29T12:07:32.553Z,84.17
2019-04-29T12:08:30.678Z,83.96
2019-04-29T12:09:32.192Z,84.06
2019-04-29T12:10:30.655Z,84.06
2019-04-29T12:11:35.861Z,83.72
2019-04-29T12:12:31.657Z,83.62
2019-04-29T12:13:30.615Z,82.84
2019-04-29T12:14:33.703Z,83.31
2019-04-29T12:15:31.601Z,82.70
2019-04-29T12:16:30.594Z,82.35
2019-04-29T12:17:30.581Z,82.26
2019-04-29T12:18:34.056Z,82.35
2019-04-29T12:19:31.551Z,81.20
2019-04-29T12:20:30.538Z,81.30
2019-04-29T12:21:30.533Z,81.10
2019-04-29T12:22:31.070Z,80.24
2019-04-29T12:23:30.531Z,80.45
2019-04-29T12:24:30.495Z,80.15
2019-04-29T12:25:30.484Z,80.45
2019-04-29T12:26:30.488Z,79.84
2019-04-29T12:27:30.467Z,79.29
2019-04-29T12:28:30.483Z,79.90
2019-04-29T12:29:30.445Z,78.55
2019-04-29T12:30:34.715Z,78.95
2019-04-29T12:31:31.427Z,78.44
2019-04-29T12:32:30.408Z,78.95
2019-04-29T12:33:32.452Z,79.56
2019-04-29T12:34:31.392Z,78.41
2019-04-29T12:35:30.539Z,79.02
2019-04-29T12:36:30.365Z,78.61
2019-04-29T12:37:31.280Z,77.86
2019-04-29T12:38:39.624Z,77.86
2019-04-29T12:39:43.079Z,78.03
2019-04-29T12:40:31.322Z,76.81
2019-04-29T12:41:31.527Z,76.81
2019-04-29T12:42:30.303Z,76.40
2019-04-29T12:43:32.299Z,77.52
2019-04-29T12:44:35.509Z,77.15
2019-04-29T12:45:31.268Z,77.76
2019-04-29T12:46:30.259Z,77.86
2019-04-29T12:47:30.251Z,77.22
2019-04-29T12:48:30.276Z,77.01
2019-04-29T12:49:30.227Z,76.06
2019-04-29T12:50:30.219Z,75.69
2019-04-29T12:51:30.201Z,74.44
2019-04-29T12:52:30.198Z,72.34
2019-04-29T12:53:30.190Z,72.75
2019-04-29T12:54:30.185Z,72.81